Terminal Aerodrome Forecast
Issued by NWS Shreveport, LA

Home | Current Version | Previous Version | Text Only | Print | Product List | Glossary On
Versions: 1 2 3 4 5 6 7 8 9 10 11 12 13 14 15 16 17 18 19 20 21 22
000
FTUS44 KSHV 302341
TAFMLU
TAF
KMLU 302341Z 3100/3124 VRB03KT P6SM SCT250
     FM310400 VRB04KT P6SM VCTS SCT030CB BKN080 BKN250
     FM310900 30006KT 5SM BR BKN015
     FM311200 33003KT 2SM BR BKN007
     FM311500 32006KT P6SM BKN015 BKN250
     FM311900 32008KT P6SM SCT025 BKN035=

USA.gov is the U.S. government's official web portal to all federal, state and local government web resources and services.